sensor_id;sensor_type;location;lat;lon;timestamp;P1;durP1;ratioP1;P2;durP2;ratioP2
22904;SDS011;11619;50.140;8.518;2023-05-07T00:00:17;1.58;;;1.48;;
22904;SDS011;11619;50.140;8.518;2023-05-07T00:02:45;2.20;;;1.70;;
22904;SDS011;11619;50.140;8.518;2023-05-07T00:05:12;1.70;;;1.50;;
22904;SDS011;11619;50.140;8.518;2023-05-07T00:07:39;2.40;;;1.50;;
22904;SDS011;11619;50.140;8.518;2023-05-07T00:10:06;1.73;;;1.42;;
22904;SDS011;11619;50.140;8.518;2023-05-07T00:12:33;2.42;;;1.70;;
22904;SDS011;11619;50.140;8.518;2023-05-07T00:15:01;2.03;;;1.75;;
22904;SDS011;11619;50.140;8.518;2023-05-07T00:17:29;1.40;;;1.30;;
22904;SDS011;11619;50.140;8.518;2023-05-07T00:19:56;2.00;;;1.52;;
22904;SDS011;11619;50.140;8.518;2023-05-07T00:22:22;4.93;;;1.40;;
22904;SDS011;11619;50.140;8.518;2023-05-07T00:24:49;2.40;;;1.42;;
22904;SDS011;11619;50.140;8.518;2023-05-07T00:27:15;2.35;;;1.60;;
22904;SDS011;11619;50.140;8.518;2023-05-07T00:29:42;4.05;;;1.60;;
22904;SDS011;11619;50.140;8.518;2023-05-07T00:32:08;3.10;;;1.27;;
22904;SDS011;11619;50.140;8.518;2023-05-07T00:34:35;2.17;;;1.23;;
22904;SDS011;11619;50.140;8.518;2023-05-07T00:37:01;3.42;;;1.85;;
22904;SDS011;11619;50.140;8.518;2023-05-07T00:39:31;2.20;;;1.67;;
22904;SDS011;11619;50.140;8.518;2023-05-07T00:41:58;3.20;;;1.40;;
22904;SDS011;11619;50.140;8.518;2023-05-07T00:44:24;2.28;;;1.50;;
22904;SDS011;11619;50.140;8.518;2023-05-07T00:46:51;3.55;;;2.17;;
22904;SDS011;11619;50.140;8.518;2023-05-07T00:49:17;5.75;;;2.13;;
22904;SDS011;11619;50.140;8.518;2023-05-07T00:51:44;2.33;;;1.50;;
22904;SDS011;11619;50.140;8.518;2023-05-07T00:54:11;2.63;;;1.88;;
22904;SDS011;11619;50.140;8.518;2023-05-07T00:56:39;1.73;;;1.42;;
22904;SDS011;11619;50.140;8.518;2023-05-07T00:59:05;2.60;;;1.67;;
22904;SDS011;11619;50.140;8.518;2023-05-07T01:01:32;1.92;;;1.52;;
22904;SDS011;11619;50.140;8.518;2023-05-07T01:03:59;2.80;;;1.55;;
22904;SDS011;11619;50.140;8.518;2023-05-07T01:06:28;2.00;;;1.60;;
22904;SDS011;11619;50.140;8.518;2023-05-07T01:08:55;2.85;;;1.75;;
22904;SDS011;11619;50.140;8.518;2023-05-07T01:11:23;1.42;;;1.23;;
22904;SDS011;11619;50.140;8.518;2023-05-07T01:13:51;1.90;;;1.45;;
22904;SDS011;11619;50.140;8.518;2023-05-07T01:16:18;2.03;;;1.63;;
22904;SDS011;11619;50.140;8.518;2023-05-07T01:18:44;2.20;;;2.00;;
22904;SDS011;11619;50.140;8.518;2023-05-07T01:21:13;2.55;;;1.77;;
22904;SDS011;11619;50.140;8.518;2023-05-07T01:23:41;1.88;;;1.45;;
22904;SDS011;11619;50.140;8.518;2023-05-07T01:26:08;1.95;;;1.60;;
22904;SDS011;11619;50.140;8.518;2023-05-07T01:28:34;3.78;;;1.90;;
22904;SDS011;11619;50.140;8.518;2023-05-07T01:31:02;2.50;;;1.95;;
22904;SDS011;11619;50.140;8.518;2023-05-07T01:33:31;2.83;;;1.85;;
22904;SDS011;11619;50.140;8.518;2023-05-07T01:35:59;3.28;;;1.88;;
22904;SDS011;11619;50.140;8.518;2023-05-07T01:38:28;2.22;;;1.75;;
22904;SDS011;11619;50.140;8.518;2023-05-07T01:40:55;2.67;;;1.60;;
22904;SDS011;11619;50.140;8.518;2023-05-07T01:43:22;3.80;;;1.90;;
22904;SDS011;11619;50.140;8.518;2023-05-07T01:45:48;3.70;;;1.92;;
22904;SDS011;11619;50.140;8.518;2023-05-07T01:48:15;3.85;;;2.33;;
22904;SDS011;11619;50.140;8.518;2023-05-07T01:50:42;1.80;;;1.48;;
22904;SDS011;11619;50.140;8.518;2023-05-07T01:53:09;3.28;;;1.63;;
22904;SDS011;11619;50.140;8.518;2023-05-07T01:55:37;2.13;;;1.48;;
22904;SDS011;11619;50.140;8.518;2023-05-07T01:58:03;4.38;;;2.35;;
22904;SDS011;11619;50.140;8.518;2023-05-07T02:00:30;2.00;;;1.80;;
22904;SDS011;11619;50.140;8.518;2023-05-07T02:02:57;2.72;;;1.95;;
22904;SDS011;11619;50.140;8.518;2023-05-07T02:05:24;2.47;;;1.83;;
22904;SDS011;11619;50.140;8.518;2023-05-07T02:07:50;2.95;;;1.80;;
22904;SDS011;11619;50.140;8.518;2023-05-07T02:10:17;1.60;;;1.50;;
22904;SDS011;11619;50.140;8.518;2023-05-07T02:12:43;2.05;;;1.80;;
22904;SDS011;11619;50.140;8.518;2023-05-07T02:15:10;3.92;;;1.77;;
22904;SDS011;11619;50.140;8.518;2023-05-07T02:17:39;2.35;;;1.70;;
22904;SDS011;11619;50.140;8.518;2023-05-07T02:20:06;3.67;;;1.75;;
22904;SDS011;11619;50.140;8.518;2023-05-07T02:22:39;2.00;;;1.40;;
22904;SDS011;11619;50.140;8.518;2023-05-07T02:25:05;1.90;;;1.70;;
22904;SDS011;11619;50.140;8.518;2023-05-07T02:27:32;3.53;;;1.95;;
22904;SDS011;11619;50.140;8.518;2023-05-07T02:29:58;1.70;;;1.60;;
22904;SDS011;11619;50.140;8.518;2023-05-07T02:32:25;2.00;;;1.70;;
22904;SDS011;11619;50.140;8.518;2023-05-07T02:34:52;2.13;;;1.75;;
22904;SDS011;11619;50.140;8.518;2023-05-07T02:37:18;1.60;;;1.50;;
22904;SDS011;11619;50.140;8.518;2023-05-07T02:39:44;1.98;;;1.55;;
22904;SDS011;11619;50.140;8.518;2023-05-07T02:42:11;1.48;;;1.38;;
22904;SDS011;11619;50.140;8.518;2023-05-07T02:44:37;1.50;;;1.40;;
22904;SDS011;11619;50.140;8.518;2023-05-07T02:47:04;1.80;;;1.65;;
22904;SDS011;11619;50.140;8.518;2023-05-07T02:49:30;2.17;;;1.55;;
22904;SDS011;11619;50.140;8.518;2023-05-07T02:51:56;2.17;;;1.60;;
22904;SDS011;11619;50.140;8.518;2023-05-07T02:54:23;2.35;;;1.70;;
22904;SDS011;11619;50.140;8.518;2023-05-07T02:56:49;1.80;;;1.70;;
22904;SDS011;11619;50.140;8.518;2023-05-07T02:59:16;4.03;;;2.00;;
22904;SDS011;11619;50.140;8.518;2023-05-07T03:01:42;2.63;;;1.80;;
22904;SDS011;11619;50.140;8.518;2023-05-07T03:04:11;3.45;;;1.70;;
22904;SDS011;11619;50.140;8.518;2023-05-07T03:06:37;3.05;;;1.67;;
22904;SDS011;11619;50.140;8.518;2023-05-07T03:09:04;1.75;;;1.60;;
22904;SDS011;11619;50.140;8.518;2023-05-07T03:11:30;2.22;;;1.70;;
22904;SDS011;11619;50.140;8.518;2023-05-07T03:13:57;1.80;;;1.70;;
22904;SDS011;11619;50.140;8.518;2023-05-07T03:16:23;1.73;;;1.63;;
22904;SDS011;11619;50.140;8.518;2023-05-07T03:18:50;3.88;;;1.98;;
22904;SDS011;11619;50.140;8.518;2023-05-07T03:21:16;2.42;;;1.80;;
22904;SDS011;11619;50.140;8.518;2023-05-07T03:23:42;3.22;;;1.83;;
22904;SDS011;11619;50.140;8.518;2023-05-07T03:26:09;2.55;;;1.80;;
22904;SDS011;11619;50.140;8.518;2023-05-07T03:28:36;2.33;;;1.60;;
22904;SDS011;11619;50.140;8.518;2023-05-07T03:31:03;2.33;;;2.00;;
22904;SDS011;11619;50.140;8.518;2023-05-07T03:33:29;1.85;;;1.75;;
22904;SDS011;11619;50.140;8.518;2023-05-07T03:35:55;6.03;;;1.90;;
22904;SDS011;11619;50.140;8.518;2023-05-07T03:38:22;1.70;;;1.58;;
22904;SDS011;11619;50.140;8.518;2023-05-07T03:40:48;3.15;;;1.90;;
22904;SDS011;11619;50.140;8.518;2023-05-07T03:43:15;2.08;;;1.80;;
22904;SDS011;11619;50.140;8.518;2023-05-07T03:45:41;3.42;;;2.17;;
22904;SDS011;11619;50.140;8.518;2023-05-07T03:48:08;2.55;;;2.00;;
22904;SDS011;11619;50.140;8.518;2023-05-07T03:50:34;2.35;;;2.15;;
22904;SDS011;11619;50.140;8.518;2023-05-07T03:53:01;1.98;;;1.70;;
22904;SDS011;11619;50.140;8.518;2023-05-07T03:55:27;1.52;;;1.42;;
22904;SDS011;11619;50.140;8.518;2023-05-07T03:57:54;4.40;;;1.88;;
22904;SDS011;11619;50.140;8.518;2023-05-07T04:00:22;2.05;;;1.85;;
22904;SDS011;11619;50.140;8.518;2023-05-07T04:02:49;2.63;;;1.55;;
22904;SDS011;11619;50.140;8.518;2023-05-07T04:05:15;2.05;;;1.55;;
22904;SDS011;11619;50.140;8.518;2023-05-07T04:07:42;1.90;;;1.80;;
22904;SDS011;11619;50.140;8.518;2023-05-07T04:10:09;2.38;;;1.70;;
22904;SDS011;11619;50.140;8.518;2023-05-07T04:12:36;2.78;;;2.20;;
22904;SDS011;11619;50.140;8.518;2023-05-07T04:15:03;1.75;;;1.65;;
22904;SDS011;11619;50.140;8.518;2023-05-07T04:17:29;1.88;;;1.67;;
22904;SDS011;11619;50.140;8.518;2023-05-07T04:19:56;1.58;;;1.48;;
22904;SDS011;11619;50.140;8.518;2023-05-07T04:22:22;2.65;;;1.90;;
22904;SDS011;11619;50.140;8.518;2023-05-07T04:24:48;2.10;;;1.90;;
22904;SDS011;11619;50.140;8.518;2023-05-07T04:27:15;1.60;;;1.50;;
22904;SDS011;11619;50.140;8.518;2023-05-07T04:29:41;2.25;;;1.90;;
22904;SDS011;11619;50.140;8.518;2023-05-07T04:32:09;3.33;;;2.05;;
22904;SDS011;11619;50.140;8.518;2023-05-07T04:34:36;5.63;;;1.90;;
22904;SDS011;11619;50.140;8.518;2023-05-07T04:37:02;2.50;;;1.80;;
22904;SDS011;11619;50.140;8.518;2023-05-07T04:39:28;2.80;;;1.88;;
22904;SDS011;11619;50.140;8.518;2023-05-07T04:41:55;4.32;;;1.80;;
22904;SDS011;11619;50.140;8.518;2023-05-07T04:44:21;2.30;;;1.67;;
22904;SDS011;11619;50.140;8.518;2023-05-07T04:46:48;4.45;;;2.20;;
22904;SDS011;11619;50.140;8.518;2023-05-07T04:49:14;4.55;;;2.13;;
22904;SDS011;11619;50.140;8.518;2023-05-07T04:51:41;8.20;;;5.50;;
22904;SDS011;11619;50.140;8.518;2023-05-07T04:54:10;7.90;;;5.15;;
22904;SDS011;11619;50.140;8.518;2023-05-07T04:56:36;4.68;;;3.50;;
22904;SDS011;11619;50.140;8.518;2023-05-07T04:59:02;5.20;;;3.33;;
22904;SDS011;11619;50.140;8.518;2023-05-07T05:01:29;3.33;;;2.58;;
22904;SDS011;11619;50.140;8.518;2023-05-07T05:03:55;4.25;;;2.08;;
22904;SDS011;11619;50.140;8.518;2023-05-07T05:06:22;2.67;;;2.40;;
22904;SDS011;11619;50.140;8.518;2023-05-07T05:08:49;6.10;;;2.15;;
22904;SDS011;11619;50.140;8.518;2023-05-07T05:11:15;4.82;;;4.25;;
22904;SDS011;11619;50.140;8.518;2023-05-07T05:13:41;7.65;;;4.35;;
22904;SDS011;11619;50.140;8.518;2023-05-07T05:16:08;5.38;;;3.85;;
22904;SDS011;11619;50.140;8.518;2023-05-07T05:18:34;2.78;;;2.47;;
22904;SDS011;11619;50.140;8.518;2023-05-07T05:21:01;2.00;;;1.80;;
22904;SDS011;11619;50.140;8.518;2023-05-07T05:23:27;1.88;;;1.70;;
22904;SDS011;11619;50.140;8.518;2023-05-07T05:25:57;3.53;;;1.90;;
22904;SDS011;11619;50.140;8.518;2023-05-07T05:28:23;2.83;;;2.08;;
22904;SDS011;11619;50.140;8.518;2023-05-07T05:30:50;2.28;;;1.85;;
22904;SDS011;11619;50.140;8.518;2023-05-07T05:33:16;5.20;;;2.15;;
22904;SDS011;11619;50.140;8.518;2023-05-07T05:35:43;2.03;;;1.63;;
22904;SDS011;11619;50.140;8.518;2023-05-07T05:38:09;3.63;;;2.17;;
22904;SDS011;11619;50.140;8.518;2023-05-07T05:40:36;2.42;;;2.10;;
22904;SDS011;11619;50.140;8.518;2023-05-07T05:43:02;3.22;;;1.85;;
22904;SDS011;11619;50.140;8.518;2023-05-07T05:45:29;2.20;;;2.00;;
22904;SDS011;11619;50.140;8.518;2023-05-07T05:47:56;4.47;;;1.80;;
22904;SDS011;11619;50.140;8.518;2023-05-07T05:50:22;2.20;;;1.80;;
22904;SDS011;11619;50.140;8.518;2023-05-07T05:52:49;2.38;;;2.17;;
22904;SDS011;11619;50.140;8.518;2023-05-07T05:55:15;2.78;;;1.90;;
22904;SDS011;11619;50.140;8.518;2023-05-07T05:57:42;2.05;;;1.85;;
22904;SDS011;11619;50.140;8.518;2023-05-07T06:00:08;2.20;;;2.00;;
22904;SDS011;11619;50.140;8.518;2023-05-07T06:02:36;2.33;;;1.90;;
22904;SDS011;11619;50.140;8.518;2023-05-07T06:05:02;2.15;;;1.95;;
22904;SDS011;11619;50.140;8.518;2023-05-07T06:07:29;2.45;;;2.10;;
22904;SDS011;11619;50.140;8.518;2023-05-07T06:09:56;2.33;;;2.13;;
22904;SDS011;11619;50.140;8.518;2023-05-07T06:12:22;3.70;;;2.00;;
22904;SDS011;11619;50.140;8.518;2023-05-07T06:14:48;4.63;;;1.90;;
22904;SDS011;11619;50.140;8.518;2023-05-07T06:17:15;2.55;;;2.35;;
22904;SDS011;11619;50.140;8.518;2023-05-07T06:19:43;2.30;;;2.10;;
22904;SDS011;11619;50.140;8.518;2023-05-07T06:22:09;2.28;;;2.08;;
22904;SDS011;11619;50.140;8.518;2023-05-07T06:24:36;2.63;;;2.42;;
22904;SDS011;11619;50.140;8.518;2023-05-07T06:27:02;2.50;;;2.30;;
22904;SDS011;11619;50.140;8.518;2023-05-07T06:29:29;3.58;;;2.35;;
22904;SDS011;11619;50.140;8.518;2023-05-07T06:31:57;4.05;;;2.45;;
22904;SDS011;11619;50.140;8.518;2023-05-07T06:34:32;5.32;;;2.42;;
22904;SDS011;11619;50.140;8.518;2023-05-07T06:36:58;2.28;;;2.08;;
22904;SDS011;11619;50.140;8.518;2023-05-07T06:39:26;2.60;;;2.40;;
22904;SDS011;11619;50.140;8.518;2023-05-07T06:41:52;3.13;;;2.10;;
22904;SDS011;11619;50.140;8.518;2023-05-07T06:44:19;4.22;;;2.50;;
22904;SDS011;11619;50.140;8.518;2023-05-07T06:46:45;2.47;;;2.10;;
22904;SDS011;11619;50.140;8.518;2023-05-07T06:49:12;3.03;;;2.30;;
22904;SDS011;11619;50.140;8.518;2023-05-07T06:51:39;6.45;;;2.65;;
22904;SDS011;11619;50.140;8.518;2023-05-07T06:54:06;2.60;;;2.40;;
22904;SDS011;11619;50.140;8.518;2023-05-07T06:56:32;2.53;;;2.30;;
22904;SDS011;11619;50.140;8.518;2023-05-07T06:59:00;3.53;;;2.50;;
22904;SDS011;11619;50.140;8.518;2023-05-07T07:01:27;4.88;;;2.67;;
22904;SDS011;11619;50.140;8.518;2023-05-07T07:03:54;2.90;;;2.65;;
22904;SDS011;11619;50.140;8.518;2023-05-07T07:06:20;2.22;;;2.03;;
22904;SDS011;11619;50.140;8.518;2023-05-07T07:08:47;3.38;;;2.00;;
22904;SDS011;11619;50.140;8.518;2023-05-07T07:11:13;3.00;;;2.80;;
22904;SDS011;11619;50.140;8.518;2023-05-07T07:13:39;3.17;;;2.88;;
22904;SDS011;11619;50.140;8.518;2023-05-07T07:16:06;2.72;;;2.53;;
22904;SDS011;11619;50.140;8.518;2023-05-07T07:18:32;4.38;;;2.63;;
22904;SDS011;11619;50.140;8.518;2023-05-07T07:20:59;3.15;;;2.85;;
22904;SDS011;11619;50.140;8.518;2023-05-07T07:23:25;3.53;;;2.70;;
22904;SDS011;11619;50.140;8.518;2023-05-07T07:25:52;3.28;;;2.97;;
22904;SDS011;11619;50.140;8.518;2023-05-07T07:28:20;2.90;;;2.60;;
22904;SDS011;11619;50.140;8.518;2023-05-07T07:30:47;2.50;;;2.30;;
22904;SDS011;11619;50.140;8.518;2023-05-07T07:33:13;3.17;;;2.75;;
22904;SDS011;11619;50.140;8.518;2023-05-07T07:35:40;3.58;;;2.55;;
22904;SDS011;11619;50.140;8.518;2023-05-07T07:38:06;4.30;;;2.58;;
22904;SDS011;11619;50.140;8.518;2023-05-07T07:40:36;3.90;;;3.33;;
22904;SDS011;11619;50.140;8.518;2023-05-07T07:43:02;3.95;;;2.90;;
22904;SDS011;11619;50.140;8.518;2023-05-07T07:45:29;3.95;;;3.03;;
22904;SDS011;11619;50.140;8.518;2023-05-07T07:47:55;6.90;;;3.00;;
22904;SDS011;11619;50.140;8.518;2023-05-07T07:50:21;5.00;;;2.90;;
22904;SDS011;11619;50.140;8.518;2023-05-07T07:53:05;4.10;;;2.53;;
22904;SDS011;11619;50.140;8.518;2023-05-07T07:55:31;4.05;;;3.00;;
22904;SDS011;11619;50.140;8.518;2023-05-07T07:57:58;2.80;;;2.60;;
22904;SDS011;11619;50.140;8.518;2023-05-07T08:00:29;4.13;;;2.92;;
22904;SDS011;11619;50.140;8.518;2023-05-07T08:02:56;3.28;;;2.83;;
22904;SDS011;11619;50.140;8.518;2023-05-07T08:05:23;3.60;;;3.10;;
22904;SDS011;11619;50.140;8.518;2023-05-07T08:07:49;3.35;;;3.03;;
22904;SDS011;11619;50.140;8.518;2023-05-07T08:10:19;3.25;;;2.95;;
22904;SDS011;11619;50.140;8.518;2023-05-07T08:12:48;3.58;;;3.28;;
22904;SDS011;11619;50.140;8.518;2023-05-07T08:15:15;3.47;;;3.03;;
22904;SDS011;11619;50.140;8.518;2023-05-07T08:17:42;3.80;;;3.42;;
22904;SDS011;11619;50.140;8.518;2023-05-07T08:20:09;3.50;;;3.20;;
22904;SDS011;11619;50.140;8.518;2023-05-07T08:22:36;3.72;;;3.22;;
22904;SDS011;11619;50.140;8.518;2023-05-07T08:25:03;3.65;;;2.97;;
22904;SDS011;11619;50.140;8.518;2023-05-07T08:27:30;3.83;;;3.22;;
22904;SDS011;11619;50.140;8.518;2023-05-07T08:29:56;3.88;;;3.45;;
22904;SDS011;11619;50.140;8.518;2023-05-07T08:32:23;3.80;;;2.97;;
22904;SDS011;11619;50.140;8.518;2023-05-07T08:34:49;3.67;;;3.38;;
22904;SDS011;11619;50.140;8.518;2023-05-07T08:37:16;3.70;;;3.35;;
22904;SDS011;11619;50.140;8.518;2023-05-07T08:39:42;5.22;;;3.65;;
22904;SDS011;11619;50.140;8.518;2023-05-07T08:42:09;4.00;;;3.60;;
22904;SDS011;11619;50.140;8.518;2023-05-07T08:44:36;6.13;;;3.80;;
22904;SDS011;11619;50.140;8.518;2023-05-07T08:47:06;4.57;;;3.67;;
22904;SDS011;11619;50.140;8.518;2023-05-07T08:49:33;5.28;;;3.63;;
22904;SDS011;11619;50.140;8.518;2023-05-07T08:52:00;4.97;;;3.80;;
22904;SDS011;11619;50.140;8.518;2023-05-07T08:54:26;4.60;;;3.58;;
22904;SDS011;11619;50.140;8.518;2023-05-07T08:56:53;3.70;;;3.00;;
22904;SDS011;11619;50.140;8.518;2023-05-07T08:59:20;3.80;;;3.50;;
22904;SDS011;11619;50.140;8.518;2023-05-07T09:01:46;4.43;;;4.03;;
22904;SDS011;11619;50.140;8.518;2023-05-07T09:04:13;3.75;;;3.45;;
22904;SDS011;11619;50.140;8.518;2023-05-07T09:06:40;4.07;;;3.70;;
22904;SDS011;11619;50.140;8.518;2023-05-07T09:09:08;4.13;;;3.45;;
22904;SDS011;11619;50.140;8.518;2023-05-07T09:11:34;5.63;;;3.85;;
22904;SDS011;11619;50.140;8.518;2023-05-07T09:14:01;3.95;;;3.65;;
22904;SDS011;11619;50.140;8.518;2023-05-07T09:16:29;4.55;;;3.47;;
22904;SDS011;11619;50.140;8.518;2023-05-07T09:18:58;3.75;;;3.42;;
22904;SDS011;11619;50.140;8.518;2023-05-07T09:21:25;3.60;;;3.30;;
22904;SDS011;11619;50.140;8.518;2023-05-07T09:23:54;4.60;;;3.30;;
22904;SDS011;11619;50.140;8.518;2023-05-07T09:26:21;4.70;;;3.72;;
22904;SDS011;11619;50.140;8.518;2023-05-07T09:28:48;4.90;;;3.55;;
22904;SDS011;11619;50.140;8.518;2023-05-07T09:31:15;6.88;;;3.58;;
22904;SDS011;11619;50.140;8.518;2023-05-07T09:33:43;4.20;;;3.60;;
22904;SDS011;11619;50.140;8.518;2023-05-07T09:36:10;4.93;;;3.88;;
22904;SDS011;11619;50.140;8.518;2023-05-07T09:38:37;4.28;;;3.85;;
22904;SDS011;11619;50.140;8.518;2023-05-07T09:43:37;5.97;;;4.00;;
22904;SDS011;11619;50.140;8.518;2023-05-07T09:46:09;6.50;;;3.60;;
22904;SDS011;11619;50.140;8.518;2023-05-07T09:48:39;4.40;;;3.83;;
22904;SDS011;11619;50.140;8.518;2023-05-07T09:51:13;4.53;;;3.42;;
22904;SDS011;11619;50.140;8.518;2023-05-07T09:53:57;3.67;;;3.38;;
22904;SDS011;11619;50.140;8.518;2023-05-07T09:56:26;3.60;;;3.30;;
22904;SDS011;11619;50.140;8.518;2023-05-07T09:58:53;5.85;;;3.63;;
22904;SDS011;11619;50.140;8.518;2023-05-07T10:01:20;3.75;;;3.45;;
22904;SDS011;11619;50.140;8.518;2023-05-07T10:03:48;3.88;;;3.58;;
22904;SDS011;11619;50.140;8.518;2023-05-07T10:06:19;4.35;;;3.95;;
22904;SDS011;11619;50.140;8.518;2023-05-07T10:08:46;3.97;;;3.60;;
22904;SDS011;11619;50.140;8.518;2023-05-07T10:11:13;6.25;;;3.25;;
22904;SDS011;11619;50.140;8.518;2023-05-07T10:13:41;3.95;;;3.35;;
22904;SDS011;11619;50.140;8.518;2023-05-07T10:16:07;4.25;;;3.95;;
22904;SDS011;11619;50.140;8.518;2023-05-07T10:18:34;4.35;;;3.60;;
22904;SDS011;11619;50.140;8.518;2023-05-07T10:23:38;3.85;;;3.55;;
22904;SDS011;11619;50.140;8.518;2023-05-07T10:26:06;4.53;;;3.97;;
22904;SDS011;11619;50.140;8.518;2023-05-07T10:28:35;4.55;;;3.95;;
22904;SDS011;11619;50.140;8.518;2023-05-07T10:34:02;4.97;;;3.60;;
22904;SDS011;11619;50.140;8.518;2023-05-07T10:36:33;3.80;;;3.50;;
22904;SDS011;11619;50.140;8.518;2023-05-07T10:39:03;4.25;;;3.95;;
22904;SDS011;11619;50.140;8.518;2023-05-07T10:41:31;5.40;;;4.05;;
22904;SDS011;11619;50.140;8.518;2023-05-07T10:43:57;5.35;;;3.72;;
22904;SDS011;11619;50.140;8.518;2023-05-07T10:46:27;4.35;;;3.95;;
22904;SDS011;11619;50.140;8.518;2023-05-07T10:51:34;3.40;;;3.10;;
22904;SDS011;11619;50.140;8.518;2023-05-07T10:56:38;3.90;;;3.60;;
22904;SDS011;11619;50.140;8.518;2023-05-07T11:01:55;5.43;;;3.67;;
22904;SDS011;11619;50.140;8.518;2023-05-07T11:04:24;4.07;;;3.67;;
22904;SDS011;11619;50.140;8.518;2023-05-07T11:17:53;3.70;;;3.33;;
22904;SDS011;11619;50.140;8.518;2023-05-07T11:23:54;4.15;;;3.67;;
22904;SDS011;11619;50.140;8.518;2023-05-07T11:26:04;3.63;;;3.33;;
22904;SDS011;11619;50.140;8.518;2023-05-07T11:28:33;6.38;;;4.00;;
22904;SDS011;11619;50.140;8.518;2023-05-07T11:31:03;3.65;;;3.35;;
22904;SDS011;11619;50.140;8.518;2023-05-07T11:33:30;4.03;;;3.45;;
22904;SDS011;11619;50.140;8.518;2023-05-07T11:35:57;3.78;;;3.20;;
22904;SDS011;11619;50.140;8.518;2023-05-07T11:38:24;5.30;;;3.42;;
22904;SDS011;11619;50.140;8.518;2023-05-07T11:40:54;4.28;;;3.72;;
22904;SDS011;11619;50.140;8.518;2023-05-07T11:43:22;3.92;;;3.63;;
22904;SDS011;11619;50.140;8.518;2023-05-07T11:45:50;4.00;;;3.60;;
22904;SDS011;11619;50.140;8.518;2023-05-07T11:48:16;3.28;;;3.08;;
22904;SDS011;11619;50.140;8.518;2023-05-07T11:50:53;4.28;;;2.95;;
22904;SDS011;11619;50.140;8.518;2023-05-07T11:53:26;3.95;;;3.03;;
22904;SDS011;11619;50.140;8.518;2023-05-07T11:55:56;3.45;;;3.17;;
22904;SDS011;11619;50.140;8.518;2023-05-07T11:58:23;3.83;;;3.53;;
22904;SDS011;11619;50.140;8.518;2023-05-07T12:00:50;4.68;;;3.60;;
22904;SDS011;11619;50.140;8.518;2023-05-07T12:03:17;5.75;;;3.60;;
22904;SDS011;11619;50.140;8.518;2023-05-07T12:05:47;5.80;;;2.85;;
22904;SDS011;11619;50.140;8.518;2023-05-07T12:08:15;3.55;;;3.25;;
22904;SDS011;11619;50.140;8.518;2023-05-07T12:10:43;4.07;;;2.97;;
22904;SDS011;11619;50.140;8.518;2023-05-07T12:15:53;3.03;;;2.75;;
22904;SDS011;11619;50.140;8.518;2023-05-07T12:18:20;4.60;;;3.20;;
22904;SDS011;11619;50.140;8.518;2023-05-07T12:20:51;4.30;;;3.38;;
22904;SDS011;11619;50.140;8.518;2023-05-07T12:23:17;5.35;;;3.25;;
22904;SDS011;11619;50.140;8.518;2023-05-07T12:25:44;3.40;;;3.08;;
22904;SDS011;11619;50.140;8.518;2023-05-07T12:28:14;2.72;;;2.53;;
22904;SDS011;11619;50.140;8.518;2023-05-07T12:30:45;3.30;;;3.00;;
22904;SDS011;11619;50.140;8.518;2023-05-07T12:33:20;2.80;;;2.60;;
22904;SDS011;11619;50.140;8.518;2023-05-07T12:35:50;3.53;;;2.75;;
22904;SDS011;11619;50.140;8.518;2023-05-07T12:38:17;3.15;;;2.90;;
22904;SDS011;11619;50.140;8.518;2023-05-07T12:40:53;2.97;;;2.67;;
22904;SDS011;11619;50.140;8.518;2023-05-07T12:43:25;2.63;;;2.42;;
22904;SDS011;11619;50.140;8.518;2023-05-07T12:45:56;4.25;;;3.00;;
22904;SDS011;11619;50.140;8.518;2023-05-07T12:48:23;5.90;;;2.88;;
22904;SDS011;11619;50.140;8.518;2023-05-07T12:50:56;4.93;;;2.72;;
22904;SDS011;11619;50.140;8.518;2023-05-07T12:53:24;3.15;;;2.60;;
22904;SDS011;11619;50.140;8.518;2023-05-07T12:55:53;4.22;;;2.53;;
22904;SDS011;11619;50.140;8.518;2023-05-07T12:58:22;2.92;;;2.70;;
22904;SDS011;11619;50.140;8.518;2023-05-07T13:00:51;6.28;;;2.78;;
22904;SDS011;11619;50.140;8.518;2023-05-07T13:05:58;3.13;;;2.67;;
22904;SDS011;11619;50.140;8.518;2023-05-07T13:08:32;4.22;;;2.55;;
22904;SDS011;11619;50.140;8.518;2023-05-07T13:10:59;3.73;;;3.17;;
22904;SDS011;11619;50.140;8.518;2023-05-07T13:13:30;2.75;;;2.55;;
22904;SDS011;11619;50.140;8.518;2023-05-07T13:15:58;3.60;;;2.78;;
22904;SDS011;11619;50.140;8.518;2023-05-07T13:18:25;5.45;;;3.13;;
22904;SDS011;11619;50.140;8.518;2023-05-07T13:20:53;3.25;;;2.95;;
22904;SDS011;11619;50.140;8.518;2023-05-07T13:23:19;4.07;;;2.83;;
22904;SDS011;11619;50.140;8.518;2023-05-07T13:25:46;2.70;;;2.50;;
22904;SDS011;11619;50.140;8.518;2023-05-07T13:28:13;4.05;;;2.88;;
22904;SDS011;11619;50.140;8.518;2023-05-07T13:30:39;3.10;;;2.83;;
22904;SDS011;11619;50.140;8.518;2023-05-07T13:33:06;3.15;;;2.70;;
22904;SDS011;11619;50.140;8.518;2023-05-07T13:35:33;3.22;;;2.92;;
22904;SDS011;11619;50.140;8.518;2023-05-07T13:37:59;3.22;;;2.78;;
22904;SDS011;11619;50.140;8.518;2023-05-07T13:40:26;4.22;;;3.15;;
22904;SDS011;11619;50.140;8.518;2023-05-07T13:42:53;3.63;;;3.10;;
22904;SDS011;11619;50.140;8.518;2023-05-07T13:45:20;3.10;;;2.50;;
22904;SDS011;11619;50.140;8.518;2023-05-07T13:47:46;3.08;;;2.78;;
22904;SDS011;11619;50.140;8.518;2023-05-07T13:50:13;2.90;;;2.70;;
22904;SDS011;11619;50.140;8.518;2023-05-07T13:52:40;5.50;;;2.53;;
22904;SDS011;11619;50.140;8.518;2023-05-07T13:55:12;2.85;;;2.65;;
22904;SDS011;11619;50.140;8.518;2023-05-07T13:57:38;4.40;;;2.83;;
22904;SDS011;11619;50.140;8.518;2023-05-07T14:00:05;3.05;;;2.70;;
22904;SDS011;11619;50.140;8.518;2023-05-07T14:02:32;2.92;;;2.70;;
22904;SDS011;11619;50.140;8.518;2023-05-07T14:04:58;2.97;;;2.75;;
22904;SDS011;11619;50.140;8.518;2023-05-07T14:07:25;3.08;;;2.58;;
22904;SDS011;11619;50.140;8.518;2023-05-07T14:09:51;3.42;;;3.13;;
22904;SDS011;11619;50.140;8.518;2023-05-07T14:12:17;5.05;;;2.97;;
22904;SDS011;11619;50.140;8.518;2023-05-07T14:14:44;3.05;;;2.80;;
22904;SDS011;11619;50.140;8.518;2023-05-07T14:17:12;3.40;;;3.05;;
22904;SDS011;11619;50.140;8.518;2023-05-07T14:19:39;3.10;;;2.70;;
22904;SDS011;11619;50.140;8.518;2023-05-07T14:22:05;3.25;;;2.95;;
22904;SDS011;11619;50.140;8.518;2023-05-07T14:24:32;2.97;;;2.78;;
22904;SDS011;11619;50.140;8.518;2023-05-07T14:27:04;3.10;;;2.80;;
22904;SDS011;11619;50.140;8.518;2023-05-07T14:29:30;3.30;;;3.00;;
22904;SDS011;11619;50.140;8.518;2023-05-07T14:31:56;3.05;;;2.85;;
22904;SDS011;11619;50.140;8.518;2023-05-07T14:34:23;2.97;;;2.65;;
22904;SDS011;11619;50.140;8.518;2023-05-07T14:36:49;3.58;;;2.60;;
22904;SDS011;11619;50.140;8.518;2023-05-07T14:39:16;4.78;;;3.05;;
22904;SDS011;11619;50.140;8.518;2023-05-07T14:41:42;2.60;;;2.40;;
22904;SDS011;11619;50.140;8.518;2023-05-07T14:44:09;3.60;;;2.60;;
22904;SDS011;11619;50.140;8.518;2023-05-07T14:46:35;2.58;;;2.38;;
22904;SDS011;11619;50.140;8.518;2023-05-07T14:49:02;3.60;;;3.17;;
22904;SDS011;11619;50.140;8.518;2023-05-07T14:51:28;2.70;;;2.50;;
22904;SDS011;11619;50.140;8.518;2023-05-07T14:53:55;3.03;;;2.67;;
22904;SDS011;11619;50.140;8.518;2023-05-07T14:56:21;2.97;;;2.63;;
22904;SDS011;11619;50.140;8.518;2023-05-07T14:58:48;3.35;;;2.20;;
22904;SDS011;11619;50.140;8.518;2023-05-07T15:01:15;2.58;;;2.38;;
22904;SDS011;11619;50.140;8.518;2023-05-07T15:03:41;2.70;;;2.47;;
22904;SDS011;11619;50.140;8.518;2023-05-07T15:06:08;2.38;;;2.17;;
22904;SDS011;11619;50.140;8.518;2023-05-07T15:08:40;2.38;;;2.20;;
22904;SDS011;11619;50.140;8.518;2023-05-07T15:11:07;3.92;;;2.83;;
22904;SDS011;11619;50.140;8.518;2023-05-07T15:13:33;2.53;;;2.33;;
22904;SDS011;11619;50.140;8.518;2023-05-07T15:16:01;2.85;;;2.65;;
22904;SDS011;11619;50.140;8.518;2023-05-07T15:18:28;3.88;;;2.83;;
22904;SDS011;11619;50.140;8.518;2023-05-07T15:20:55;2.60;;;2.40;;
22904;SDS011;11619;50.140;8.518;2023-05-07T15:23:21;2.67;;;2.40;;